Terminal Aerodrome Forecast
Issued by NWS

Home | Current Version | Previous Version | Text Only | Print | Product List | Glossary Off
Versions: 1 2 3 4 5 6 7 8 9 10 11 12 13 14 15 16 17 18 19 20 21 22 23 24

000
FTUS43 KFGF 201506 AAC
TAFBJI
TAF AMD
KBJI 201506Z 2015/2112 VRB05KT P6SM BKN200
     FM201600 18008KT P6SM BKN200
     FM201800 21010KT P6SM BKN200
     FM202200 24011KT P6SM BKN250
     FM210400 29020G28KT P6SM BKN030
     FM210700 29022G31KT P6SM BKN035
     FM210800 30022G31KT P6SM BKN025
     FM211000 30021G29KT P6SM OVC040=

USA.gov is the U.S. government's official web portal to all federal, state and local government web resources and services.